Date,TemperatureHighF,TemperatureAvgF,TemperatureLowF,DewpointHighF,DewpointAvgF,DewpointLowF,HumidityHigh,HumidityAvg,HumidityLow,PressureMaxIn,PressureMinIn,WindSpeedMaxMPH,WindSpeedAvgMPH,GustSpeedMaxMPH,PrecipitationSumIn
2013-1-1,48,41,32,28,21,13,85,47,31,30.23,30.07,33,12,44,0.00
2013-1-2,58,46,38,20,12,7,41,26,18,30.07,30.00,32,11,49,0.00
2013-1-3,59,50,43,15,8,0,24,19,11,30.12,29.97,24,6,33,0.00
2013-1-4,60,46,33,22,9,-1,53,25,11,30.21,30.11,23,6,32,0.00
2013-1-5,61,43,33,25,18,11,63,39,17,30.26,30.16,8,3,12,0.00
2013-1-6,45,38,32,38,31,18,95,76,47,30.16,29.96,14,3,20,0.20
2013-1-7,56,42,34,36,31,22,95,66,32,30.03,29.90,8,1,23,0.05
2013-1-8,67,50,35,34,27,20,62,43,24,30.10,30.02,8,3,16,0.00
2013-1-9,68,52,40,42,33,27,80,52,26,30.09,29.92,9,3,14,0.00
2013-1-10,43,38,32,41,34,25,95,86,60,30.02,29.85,22,9,31,0.20
2013-1-11,41,33,24,29,23,20,89,70,43,30.16,30.02,13,3,17,0.06
2013-1-12,45,34,24,28,21,14,91,64,29,30.12,30.03,14,3,22,0.00
2013-1-13,46,36,28,26,20,14,80,52,32,30.11,30.00,11,4,23,0.00
2013-1-14,46,34,25,15,5,-3,63,31,17,30.30,30.07,18,7,27,0.00
2013-1-15,52,42,33,21,12,-2,43,30,24,30.37,30.28,25,6,33,0.00
2013-1-16,61,52,44,26,20,17,36,29,24,30.29,30.04,47,11,49,0.00
2013-1-17,65,56,52,20,17,14,25,21,17,30.09,30.02,39,17,51,0.00
2013-1-18,65,57,53,21,18,16,25,22,18,30.06,30.01,26,15,37,0.00
2013-1-19,65,58,51,19,16,12,22,19,15,30.12,30.02,21,11,30,0.00
2013-1-20,66,55,43,16,11,5,33,18,11,30.09,29.97,19,6,25,0.00
2013-1-21,70,60,48,10,2,-3,18,10,7,30.02,29.95,27,10,33,0.00
2013-1-22,75,61,50,29,12,-5,38,16,7,30.02,29.95,20,7,26,0.00
2013-1-23,71,62,54,40,34,27,54,36,24,30.02,29.96,12,4,19,0.00
2013-1-24,61,56,52,53,47,35,87,71,45,30.08,29.96,12,2,18,0.01
2013-1-25,59,55,51,52,50,46,95,84,67,30.04,29.86,14,4,22,0.83
2013-1-26,53,50,48,52,49,47,96,96,94,29.93,29.80,7,2,14,0.52
2013-1-27,50,44,37,47,42,35,97,92,82,29.95,29.90,12,5,23,0.05
2013-1-28,45,38,30,37,33,28,95,83,52,30.16,29.94,12,5,23,0.09
2013-1-29,52,40,29,40,34,27,93,82,49,30.21,30.13,18,2,26,0.01
2013-1-30,64,51,40,42,35,29,85,57,34,30.27,30.15,30,6,39,0.00
2013-1-31,64,57,41,36,31,27,80,39,31,30.17,30.05,25,9,37,0.00